createdAt,value
2017-10-18T00:00:58.286Z,95722.45
2017-10-18T00:03:27.342Z,95719.29
2017-10-18T00:05:56.383Z,95720.73
2017-10-18T00:08:26.317Z,95718.69
2017-10-18T00:10:56.110Z,95720.81
2017-10-18T00:13:25.152Z,95720.69
2017-10-18T00:15:54.198Z,95724.33
2017-10-18T00:18:23.263Z,95723.23
2017-10-18T00:20:52.307Z,95724.13
2017-10-18T00:23:21.351Z,95724.63
2017-10-18T00:25:50.410Z,95718.23
2017-10-18T00:28:19.446Z,95722.25
2017-10-18T00:30:48.492Z,95724.86
2017-10-18T00:33:17.527Z,95720.19
2017-10-18T00:35:46.571Z,95724.50
2017-10-18T00:38:15.616Z,95722.70
2017-10-18T00:40:44.658Z,95720.59
2017-10-18T00:43:13.710Z,95721.74
2017-10-18T00:45:42.744Z,95716.80
2017-10-18T00:48:11.798Z,95719.39
2017-10-18T00:50:40.924Z,95720.77
2017-10-18T00:53:10.987Z,95717.20
2017-10-18T00:55:40.031Z,95719.55
2017-10-18T00:58:09.070Z,95717.92
2017-10-18T01:00:38.112Z,95717.22
2017-10-18T01:03:07.172Z,95719.16
2017-10-18T01:05:36.203Z,95715.66
2017-10-18T01:08:05.335Z,95714.20
2017-10-18T01:10:34.371Z,95713.87
2017-10-18T01:13:03.442Z,95707.66
2017-10-18T01:15:32.474Z,95701.25
2017-10-18T01:18:01.532Z,95699.97
2017-10-18T01:20:30.571Z,95702.01
2017-10-18T01:22:59.631Z,95698.09
2017-10-18T01:25:28.694Z,95694.92
2017-10-18T01:27:57.738Z,95686.39
2017-10-18T01:30:26.775Z,95692.72
2017-10-18T01:32:55.827Z,95695.53
2017-10-18T01:35:24.935Z,95687.58
2017-10-18T01:37:53.961Z,95685.89
2017-10-18T01:40:23.006Z,95684.84
2017-10-18T01:42:52.047Z,95686.80
2017-10-18T01:45:21.084Z,95682.52
2017-10-18T01:47:50.127Z,95678.27
2017-10-18T01:50:19.196Z,95674.24
2017-10-18T01:52:48.390Z,95675.77
2017-10-18T01:55:17.422Z,95671.40
2017-10-18T01:57:47.467Z,95674.45
2017-10-18T02:00:16.506Z,95671.07
2017-10-18T02:02:45.540Z,95673.33
2017-10-18T02:05:14.595Z,95671.50
2017-10-18T02:07:43.630Z,95667.81
2017-10-18T02:10:12.718Z,95661.83
2017-10-18T02:12:41.753Z,95662.95
2017-10-18T02:15:10.798Z,95662.75
2017-10-18T02:17:39.835Z,95663.42
2017-10-18T02:20:08.868Z,95660.45
2017-10-18T02:22:37.931Z,95663.63
2017-10-18T02:25:06.976Z,95659.08
2017-10-18T02:27:36.035Z,95657.17
2017-10-18T02:30:05.071Z,95654.39
2017-10-18T02:32:34.118Z,95656.61
2017-10-18T02:35:03.151Z,95656.02
2017-10-18T02:37:32.183Z,95654.77
2017-10-18T02:40:01.221Z,95653.64
2017-10-18T02:42:30.274Z,95658.06
2017-10-18T02:44:59.331Z,95657.39
2017-10-18T02:47:28.370Z,95653.93
2017-10-18T02:49:57.466Z,95650.03
2017-10-18T02:52:26.512Z,95648.50
2017-10-18T02:54:55.549Z,95656.71
2017-10-18T02:57:24.630Z,95647.98
2017-10-18T02:59:53.659Z,95647.31
2017-10-18T03:02:22.694Z,95654.98
2017-10-18T03:04:51.742Z,95652.12
2017-10-18T03:07:20.995Z,95649.44
2017-10-18T03:09:50.018Z,95649.73
2017-10-18T03:12:19.054Z,95654.25
2017-10-18T03:14:50.912Z,95651.65
2017-10-18T03:17:19.971Z,95654.91
2017-10-18T03:19:49.034Z,95653.08
2017-10-18T03:22:18.078Z,95647.52
2017-10-18T03:24:47.119Z,95648.45
2017-10-18T03:27:16.138Z,95647.20
2017-10-18T03:29:45.168Z,95648.20
2017-10-18T03:32:14.208Z,95644.25
2017-10-18T03:34:43.251Z,95641.30
2017-10-18T03:37:12.332Z,95642.52
2017-10-18T03:39:41.358Z,95638.25
2017-10-18T03:42:10.392Z,95636.09
2017-10-18T03:44:39.474Z,95640.55
2017-10-18T03:47:08.484Z,95640.25
2017-10-18T03:49:37.557Z,95637.03
2017-10-18T03:52:06.594Z,95633.34
2017-10-18T03:54:35.650Z,95641.36
2017-10-18T03:57:04.699Z,95641.97
2017-10-18T03:59:34.657Z,95645.45
2017-10-18T04:02:03.710Z,95641.77
2017-10-18T04:04:32.740Z,95643.69
2017-10-18T04:07:01.776Z,95639.02
2017-10-18T04:09:30.814Z,95637.88
2017-10-18T04:11:59.834Z,95636.50
2017-10-18T04:14:28.951Z,95634.80
2017-10-18T04:16:57.971Z,95636.33
2017-10-18T04:19:27.019Z,95634.19
2017-10-18T04:21:56.099Z,95634.16
2017-10-18T04:24:25.126Z,95630.53
2017-10-18T04:26:54.171Z,95631.84
2017-10-18T04:29:23.247Z,95629.16
2017-10-18T04:31:52.257Z,95624.53
2017-10-18T04:34:21.296Z,95620.97
2017-10-18T04:36:50.379Z,95618.96
2017-10-18T04:39:19.402Z,95618.09
2017-10-18T04:41:48.432Z,95622.77
2017-10-18T04:44:17.471Z,95614.92
2017-10-18T04:46:46.535Z,95609.23
2017-10-18T04:49:15.601Z,95610.91
2017-10-18T04:51:44.727Z,95611.73
2017-10-18T04:54:14.049Z,95608.22
2017-10-18T04:56:43.245Z,95614.34
2017-10-18T04:59:12.300Z,95613.25
2017-10-18T05:01:41.374Z,95611.91
2017-10-18T05:04:10.410Z,95605.59
2017-10-18T05:06:41.173Z,95607.03
2017-10-18T05:09:10.311Z,95606.73
2017-10-18T05:11:39.356Z,95605.17
2017-10-18T05:14:08.541Z,95602.64
2017-10-18T05:16:38.501Z,95599.62
2017-10-18T05:19:07.539Z,95601.83
2017-10-18T05:21:36.622Z,95598.51
2017-10-18T05:24:05.653Z,95599.67
2017-10-18T05:26:34.717Z,95598.27
2017-10-18T05:29:03.761Z,95597.16
2017-10-18T05:31:32.782Z,95597.77
2017-10-18T05:34:02.807Z,95596.41
2017-10-18T05:36:31.906Z,95593.00
2017-10-18T05:39:01.100Z,95597.98
2017-10-18T05:41:30.122Z,95597.09
2017-10-18T05:43:59.158Z,95601.11
2017-10-18T05:46:28.182Z,95600.25
2017-10-18T05:48:57.213Z,95603.11
2017-10-18T05:51:26.330Z,95601.73
2017-10-18T05:53:55.345Z,95605.15
2017-10-18T05:56:24.384Z,95602.12
2017-10-18T05:58:53.412Z,95597.92
2017-10-18T06:01:22.447Z,95591.95
2017-10-18T06:03:51.473Z,95590.19
2017-10-18T06:06:20.519Z,95589.13
2017-10-18T06:08:49.548Z,95597.20
2017-10-18T06:11:18.600Z,95605.98
2017-10-18T06:13:47.625Z,95613.59
2017-10-18T06:16:16.660Z,95609.14
2017-10-18T06:18:45.699Z,95610.42
2017-10-18T06:21:14.733Z,95609.72
2017-10-18T06:23:43.791Z,95604.61
2017-10-18T06:26:12.812Z,95610.07
2017-10-18T06:28:41.846Z,95611.20
2017-10-18T06:31:10.876Z,95613.38
2017-10-18T06:33:39.965Z,95617.48
2017-10-18T06:36:09.030Z,95617.90
2017-10-18T06:38:38.088Z,95616.53
2017-10-18T06:41:07.114Z,95619.44
2017-10-18T06:43:36.153Z,95622.88
2017-10-18T06:46:05.226Z,95625.91
2017-10-18T06:48:34.251Z,95625.90
2017-10-18T06:51:03.299Z,95624.59
2017-10-18T06:53:33.849Z,95617.17
2017-10-18T06:56:06.526Z,95616.84
2017-10-18T06:58:36.600Z,95611.13
2017-10-18T07:01:05.651Z,95613.36
2017-10-18T07:03:34.703Z,95613.66
2017-10-18T07:06:03.757Z,95611.84
2017-10-18T07:08:33.605Z,95610.93
2017-10-18T07:11:02.614Z,95615.73
2017-10-18T07:13:31.650Z,95611.68
2017-10-18T07:16:00.697Z,95611.66
2017-10-18T07:18:29.746Z,95610.51
2017-10-18T07:20:58.795Z,95612.72
2017-10-18T07:23:55.089Z,95620.52
2017-10-18T07:30:23.544Z,95614.27
2017-10-18T07:32:52.618Z,95606.27
2017-10-18T07:35:21.662Z,95608.16
2017-10-18T07:37:50.771Z,95607.66
2017-10-18T07:40:19.925Z,95607.22
2017-10-18T07:42:48.983Z,95605.08
2017-10-18T07:45:21.750Z,95603.84
2017-10-18T07:47:50.824Z,95602.35
2017-10-18T07:50:19.908Z,95599.80
2017-10-18T07:52:48.968Z,95597.84
2017-10-18T07:55:18.008Z,95595.30
2017-10-18T07:57:47.099Z,95595.93
2017-10-18T08:00:33.527Z,95593.19
2017-10-18T08:03:33.144Z,95592.06
2017-10-18T08:06:11.620Z,95588.86
2017-10-18T08:08:40.683Z,95581.22
2017-10-18T08:11:13.603Z,95579.75
2017-10-18T08:13:42.675Z,95579.59
2017-10-18T08:16:13.621Z,95577.00
2017-10-18T08:18:44.624Z,95582.23
2017-10-18T08:21:15.768Z,95582.66
2017-10-18T08:23:44.863Z,95576.45
2017-10-18T08:26:18.036Z,95570.84
2017-10-18T08:28:47.151Z,95572.95
2017-10-18T08:31:26.324Z,95570.45
2017-10-18T08:33:55.510Z,95565.26
2017-10-18T08:36:24.557Z,95569.94
2017-10-18T08:38:53.617Z,95567.34
2017-10-18T08:41:22.723Z,95569.56
2017-10-18T08:43:51.780Z,95571.80
2017-10-18T08:46:33.479Z,95560.91
2017-10-18T08:49:13.564Z,95561.09
2017-10-18T08:51:44.622Z,95557.17
2017-10-18T08:54:19.131Z,95556.64
2017-10-18T08:56:48.188Z,95551.44
2017-10-18T08:59:27.557Z,95551.34
2017-10-18T09:02:33.479Z,95549.55
2017-10-18T09:05:24.462Z,95550.77
2017-10-18T09:07:53.798Z,95550.13
2017-10-18T09:10:34.080Z,95547.61
2017-10-18T09:13:06.219Z,95541.63
2017-10-18T09:15:35.916Z,95537.50
2017-10-18T09:18:06.982Z,95543.20
2017-10-18T09:20:36.936Z,95532.97
2017-10-18T09:23:08.045Z,95534.73
2017-10-18T09:25:38.012Z,95533.60
2017-10-18T09:28:30.462Z,95528.67
2017-10-18T09:31:00.262Z,95526.73
2017-10-18T09:33:29.449Z,95526.52
2017-10-18T09:35:58.787Z,95522.25
2017-10-18T09:38:35.376Z,95532.14
2017-10-18T09:41:04.473Z,95528.88
2017-10-18T09:43:46.448Z,95529.95
2017-10-18T09:46:18.751Z,95532.02
2017-10-18T09:48:54.866Z,95520.81
2017-10-18T09:51:28.680Z,95527.13
2017-10-18T09:53:57.940Z,95518.08
2017-10-18T09:56:31.600Z,95527.05
2017-10-18T09:59:01.280Z,95524.92
2017-10-18T10:01:30.373Z,95515.23
2017-10-18T10:04:00.656Z,95512.28
2017-10-18T10:06:34.198Z,95513.56
2017-10-18T10:09:03.268Z,95510.31
2017-10-18T10:11:33.313Z,95509.41
2017-10-18T10:14:06.304Z,95497.78
2017-10-18T10:16:40.506Z,95492.59
2017-10-18T10:19:09.675Z,95494.09
2017-10-18T10:21:42.582Z,95491.92
2017-10-18T10:24:11.684Z,95496.58
2017-10-18T10:26:40.730Z,95495.84
2017-10-18T10:29:09.771Z,95490.31
2017-10-18T10:31:56.012Z,95492.89
2017-10-18T10:34:27.119Z,95488.67
2017-10-18T10:36:57.162Z,95481.27
2017-10-18T10:39:41.115Z,95481.02
2017-10-18T10:42:10.155Z,95482.38
2017-10-18T10:44:57.877Z,95477.32
2017-10-18T10:47:54.599Z,95475.65
2017-10-18T10:50:34.505Z,95472.56
2017-10-18T10:53:03.567Z,95469.25
2017-10-18T10:55:42.721Z,95469.48
2017-10-18T10:58:11.762Z,95468.81
2017-10-18T11:00:54.273Z,95461.83
2017-10-18T11:03:30.988Z,95463.33
2017-10-18T11:06:00.696Z,95460.66
2017-10-18T11:08:42.091Z,95462.77
2017-10-18T11:11:12.081Z,95460.83
2017-10-18T11:13:45.259Z,95453.47
2017-10-18T11:16:14.335Z,95451.56
2017-10-18T11:18:55.496Z,95448.52
2017-10-18T11:21:24.556Z,95448.00
2017-10-18T11:23:57.033Z,95445.23
2017-10-18T11:26:26.079Z,95445.05
2017-10-18T11:29:09.596Z,95443.87
2017-10-18T11:31:38.664Z,95436.56
2017-10-18T11:34:20.539Z,95435.31
2017-10-18T11:37:06.941Z,95429.70
2017-10-18T11:39:36.047Z,95425.36
2017-10-18T11:42:12.359Z,95421.58
2017-10-18T11:44:49.128Z,95422.87
2017-10-18T11:47:21.729Z,95416.33
2017-10-18T11:49:50.770Z,95417.37
2017-10-18T11:52:20.840Z,95411.01
2017-10-18T11:54:56.909Z,95403.02
2017-10-18T11:57:25.974Z,95400.62
2017-10-18T12:00:20.268Z,95398.79
2017-10-18T12:02:54.405Z,95395.51
2017-10-18T12:05:23.472Z,95390.54
2017-10-18T12:08:16.378Z,95389.31
2017-10-18T12:10:59.805Z,95389.52
2017-10-18T12:13:28.858Z,95387.05
2017-10-18T12:16:05.374Z,95383.52
2017-10-18T12:18:34.435Z,95385.44
2017-10-18T12:21:20.236Z,95386.34
2017-10-18T12:23:56.404Z,95375.37
2017-10-18T12:26:25.462Z,95376.59
2017-10-18T12:29:05.434Z,95372.22
2017-10-18T12:31:34.506Z,95369.84
2017-10-18T12:34:03.553Z,95368.02
2017-10-18T12:36:32.644Z,95363.08
2017-10-18T12:39:03.621Z,95357.88
2017-10-18T12:41:34.581Z,95358.13
2017-10-18T12:44:10.700Z,95352.53
2017-10-18T12:46:39.842Z,95349.42
2017-10-18T12:49:23.436Z,95344.58
2017-10-18T12:52:20.179Z,95342.11
2017-10-18T12:54:59.657Z,95338.89
2017-10-18T12:57:28.714Z,95340.54
2017-10-18T13:00:07.118Z,95340.72
2017-10-18T13:02:36.173Z,95339.98
2017-10-18T13:05:05.219Z,95341.48
2017-10-18T13:07:34.273Z,95333.38
2017-10-18T13:10:03.329Z,95329.95
2017-10-18T13:12:32.398Z,95330.02
2017-10-18T13:15:07.047Z,95324.25
2017-10-18T13:17:36.087Z,95326.26
2017-10-18T13:20:06.159Z,95325.11
2017-10-18T13:22:35.225Z,95323.17
2017-10-18T13:25:04.286Z,95323.87
2017-10-18T13:27:33.354Z,95321.80
2017-10-18T13:30:20.927Z,95323.59
2017-10-18T13:32:57.039Z,95324.95
2017-10-18T13:35:26.085Z,95324.92
2017-10-18T13:38:04.982Z,95331.59
2017-10-18T13:40:34.057Z,95328.91
2017-10-18T13:43:03.148Z,95322.45
2017-10-18T13:45:32.231Z,95320.60
2017-10-18T13:48:25.194Z,95322.63
2017-10-18T13:50:54.767Z,95319.84
2017-10-18T13:53:31.806Z,95316.03
2017-10-18T13:56:07.863Z,95317.11
2017-10-18T13:58:36.929Z,95316.42
2017-10-18T14:01:18.030Z,95312.86
2017-10-18T14:04:07.808Z,95312.70
2017-10-18T14:06:37.669Z,95315.31
2017-10-18T14:09:15.064Z,95310.84
2017-10-18T14:11:44.124Z,95311.03
2017-10-18T14:14:13.709Z,95306.37
2017-10-18T14:16:42.771Z,95304.17
2017-10-18T14:19:21.421Z,95308.63
2017-10-18T14:21:54.916Z,95308.66
2017-10-18T14:24:23.989Z,95312.92
2017-10-18T14:27:00.497Z,95310.73
2017-10-18T14:29:30.497Z,95309.44
2017-10-18T14:31:59.533Z,95310.53
2017-10-18T14:34:32.420Z,95312.14
2017-10-18T14:37:09.461Z,95309.28
2017-10-18T14:39:39.428Z,95317.98
2017-10-18T14:42:20.687Z,95319.14
2017-10-18T14:44:50.031Z,95316.70
2017-10-18T14:47:22.684Z,95319.33
2017-10-18T14:49:58.391Z,95316.45
2017-10-18T14:52:27.458Z,95314.48
2017-10-18T14:54:58.544Z,95317.64
2017-10-18T14:57:27.619Z,95324.72
2017-10-18T15:00:20.872Z,95324.64
2017-10-18T15:03:01.184Z,95321.34
2017-10-18T15:05:30.305Z,95325.72
2017-10-18T15:08:21.106Z,95322.38
2017-10-18T15:11:20.681Z,95322.98
2017-10-18T15:14:08.040Z,95325.74
2017-10-18T15:16:37.123Z,95323.01
2017-10-18T15:19:14.071Z,95329.55
2017-10-18T15:21:43.130Z,95327.70
2017-10-18T15:24:21.398Z,95324.61
2017-10-18T15:26:55.339Z,95326.84
2017-10-18T15:29:28.473Z,95324.22
2017-10-18T15:32:01.439Z,95327.15
2017-10-18T15:34:31.499Z,95324.14
2017-10-18T15:37:22.029Z,95323.84
2017-10-18T15:40:21.627Z,95319.77
2017-10-18T15:42:50.817Z,95327.53
2017-10-18T15:45:19.902Z,95329.53
2017-10-18T15:47:59.508Z,95334.27
2017-10-18T15:50:30.539Z,95335.14
2017-10-18T15:52:59.614Z,95339.38
2017-10-18T15:55:31.956Z,95334.76
2017-10-18T15:58:09.057Z,95340.91
2017-10-18T16:00:38.153Z,95339.91
2017-10-18T16:03:20.821Z,95341.98
2017-10-18T16:05:49.904Z,95342.93
2017-10-18T16:08:20.897Z,95342.09
2017-10-18T16:10:57.796Z,95341.42
2017-10-18T16:13:31.103Z,95340.83
2017-10-18T16:16:22.046Z,95342.73
2017-10-18T16:19:21.857Z,95347.89
2017-10-18T16:21:59.131Z,95351.73
2017-10-18T16:24:28.197Z,95355.99
2017-10-18T16:27:08.398Z,95355.36
2017-10-18T16:29:37.569Z,95359.01
2017-10-18T16:32:13.868Z,95357.65
2017-10-18T16:34:42.966Z,95362.48
2017-10-18T16:37:15.851Z,95366.13
2017-10-18T16:39:52.644Z,95371.53
2017-10-18T16:42:22.536Z,95372.55
2017-10-18T16:45:03.563Z,95370.67
2017-10-18T16:47:33.717Z,95374.14
2017-10-18T16:50:03.720Z,95370.05
2017-10-18T16:52:33.612Z,95368.31
2017-10-18T16:55:20.067Z,95367.06
2017-10-18T16:58:14.176Z,95368.95
2017-10-18T17:00:43.229Z,95362.66
2017-10-18T17:03:23.721Z,95366.39
2017-10-18T17:06:20.057Z,95371.51
2017-10-18T17:08:52.929Z,95378.05
2017-10-18T17:11:22.774Z,95373.33
2017-10-18T17:14:24.074Z,95380.35
2017-10-18T17:16:53.142Z,95385.25
2017-10-18T17:19:23.622Z,95389.44
2017-10-18T17:22:20.785Z,95391.03
2017-10-18T17:25:13.340Z,95396.69
2017-10-18T17:27:49.611Z,95399.37
2017-10-18T17:30:20.795Z,95396.44
2017-10-18T17:32:49.849Z,95399.27
2017-10-18T17:35:22.793Z,95402.06
2017-10-18T17:38:19.888Z,95405.13
2017-10-18T17:40:57.825Z,95404.41
2017-10-18T17:43:26.893Z,95419.21
2017-10-18T17:45:55.989Z,95414.71
2017-10-18T17:48:25.428Z,95418.41
2017-10-18T17:50:54.472Z,95421.61
2017-10-18T17:53:23.530Z,95421.45
2017-10-18T17:56:07.367Z,95425.39
2017-10-18T17:58:45.633Z,95428.93
2017-10-18T18:01:22.568Z,95423.84
2017-10-18T18:03:57.365Z,95426.17
2017-10-18T18:06:26.484Z,95426.85
2017-10-18T18:08:59.349Z,95426.91
2017-10-18T18:11:28.449Z,95425.86
2017-10-18T18:14:23.847Z,95423.15
2017-10-18T18:17:21.839Z,95422.41
2017-10-18T18:20:01.296Z,95420.59
2017-10-18T18:22:30.363Z,95418.63
2017-10-18T18:25:10.692Z,95419.16
2017-10-18T18:27:41.431Z,95415.63
2017-10-18T18:30:12.468Z,95415.03
2017-10-18T18:32:41.531Z,95413.25
2017-10-18T18:35:11.490Z,95412.60
2017-10-18T18:37:50.484Z,95411.29
2017-10-18T18:40:26.670Z,95409.24
2017-10-18T18:42:55.713Z,95407.94
2017-10-18T18:45:30.147Z,95410.33
2017-10-18T18:48:02.763Z,95408.55
2017-10-18T18:50:31.837Z,95413.66
2017-10-18T18:53:09.992Z,95416.54
2017-10-18T18:55:39.071Z,95415.73
2017-10-18T18:58:21.769Z,95414.82
2017-10-18T19:01:25.519Z,95412.17
2017-10-18T19:04:11.779Z,95413.50
2017-10-18T19:06:57.082Z,95419.38
2017-10-18T19:09:26.138Z,95422.22
2017-10-18T19:11:58.307Z,95433.89
2017-10-18T19:14:28.281Z,95437.41
2017-10-18T19:16:58.154Z,95435.64
2017-10-18T19:19:27.228Z,95438.72
2017-10-18T19:22:11.122Z,95438.58
2017-10-18T19:24:40.208Z,95439.63
2017-10-18T19:27:11.199Z,95437.66
2017-10-18T19:29:40.760Z,95438.93
2017-10-18T19:32:09.810Z,95432.36
2017-10-18T19:34:38.862Z,95435.36
2017-10-18T19:37:15.738Z,95433.71
2017-10-18T19:39:45.790Z,95435.95
2017-10-18T19:42:15.816Z,95432.69
2017-10-18T19:44:45.811Z,95432.16
2017-10-18T19:47:14.852Z,95432.75
2017-10-18T19:49:43.914Z,95434.39
2017-10-18T19:52:13.785Z,95435.28
2017-10-18T19:54:50.573Z,95438.05
2017-10-18T19:57:19.626Z,95437.84
2017-10-18T19:59:51.713Z,95438.64
2017-10-18T20:02:21.823Z,95442.08
2017-10-18T20:04:54.573Z,95447.61
2017-10-18T20:07:31.867Z,95447.28
2017-10-18T20:10:00.946Z,95449.13
2017-10-18T20:12:35.078Z,95449.84
2017-10-18T20:15:13.325Z,95448.28
2017-10-18T20:17:42.409Z,95448.83
2017-10-18T20:20:15.677Z,95450.41
2017-10-18T20:22:44.738Z,95453.91
2017-10-18T20:25:13.796Z,95450.08
2017-10-18T20:27:42.882Z,95448.97
2017-10-18T20:30:11.919Z,95454.29
2017-10-18T20:32:41.403Z,95446.50
2017-10-18T20:35:12.554Z,95447.55
2017-10-18T20:37:41.843Z,95448.21
2017-10-18T20:40:11.016Z,95444.89
2017-10-18T20:42:40.193Z,95445.58
2017-10-18T20:45:11.515Z,95454.87
2017-10-18T20:47:40.817Z,95446.81
2017-10-18T20:50:22.132Z,95450.30
2017-10-18T20:52:51.422Z,95447.85
2017-10-18T20:55:30.734Z,95446.34
2017-10-18T20:57:59.820Z,95453.77
2017-10-18T21:00:40.239Z,95448.58
2017-10-18T21:03:21.380Z,95447.81
2017-10-18T21:05:51.372Z,95445.68
2017-10-18T21:08:21.428Z,95447.04
2017-10-18T21:10:50.575Z,95446.88
2017-10-18T21:13:21.960Z,95444.34
2017-10-18T21:15:51.029Z,95443.50
2017-10-18T21:18:20.814Z,95438.15
2017-10-18T21:20:49.982Z,95439.64
2017-10-18T21:23:23.329Z,95441.25
2017-10-18T21:25:53.415Z,95434.48
2017-10-18T21:28:36.645Z,95438.97
2017-10-18T21:31:11.053Z,95435.46
2017-10-18T21:33:40.289Z,95435.45
2017-10-18T21:36:15.108Z,95434.21
2017-10-18T21:38:45.097Z,95424.81
2017-10-18T21:41:17.297Z,95426.05
2017-10-18T21:43:46.353Z,95426.22
2017-10-18T21:46:21.831Z,95427.58
2017-10-18T21:48:50.883Z,95431.66
2017-10-18T21:51:40.777Z,95428.95
2017-10-18T21:54:18.368Z,95427.71
2017-10-18T21:56:47.413Z,95426.61
2017-10-18T21:59:17.609Z,95435.60
2017-10-18T22:01:47.548Z,95429.59
2017-10-18T22:04:21.458Z,95429.75
2017-10-18T22:06:50.468Z,95432.62
2017-10-18T22:09:24.252Z,95433.95
2017-10-18T22:11:53.307Z,95432.57
2017-10-18T22:14:23.354Z,95432.07
2017-10-18T22:16:52.400Z,95436.66
2017-10-18T22:19:39.967Z,95437.77
2017-10-18T22:22:14.343Z,95440.19
2017-10-18T22:24:43.415Z,95442.70
2017-10-18T22:27:14.379Z,95438.57
2017-10-18T22:29:43.435Z,95439.98
2017-10-18T22:32:20.212Z,95443.84
2017-10-18T22:34:49.256Z,95442.24
2017-10-18T22:37:18.339Z,95449.28
2017-10-18T22:39:47.410Z,95442.77
2017-10-18T22:42:40.221Z,95440.77
2017-10-18T22:45:09.268Z,95435.85
2017-10-18T22:47:41.521Z,95444.88
2017-10-18T22:50:14.330Z,95440.20
2017-10-18T22:52:43.433Z,95445.67
2017-10-18T22:55:16.301Z,95445.00
2017-10-18T22:57:45.399Z,95444.32
2017-10-18T23:00:35.315Z,95439.18
2017-10-18T23:03:27.114Z,95445.56
2017-10-18T23:05:56.152Z,95452.06
2017-10-18T23:08:34.820Z,95452.20
2017-10-18T23:11:20.956Z,95454.10
2017-10-18T23:13:51.941Z,95459.15
2017-10-18T23:16:35.259Z,95457.95
2017-10-18T23:19:07.601Z,95457.80
2017-10-18T23:21:39.707Z,95460.28
2017-10-18T23:24:18.990Z,95466.14
2017-10-18T23:26:48.081Z,95468.66
2017-10-18T23:29:17.182Z,95463.61
2017-10-18T23:31:46.253Z,95462.27
2017-10-18T23:34:25.595Z,95463.52
2017-10-18T23:36:54.632Z,95463.02
2017-10-18T23:39:30.719Z,95465.50
2017-10-18T23:41:59.980Z,95469.36
2017-10-18T23:44:36.030Z,95469.05
2017-10-18T23:47:18.912Z,95471.58
2017-10-18T23:49:47.980Z,95478.94
2017-10-18T23:52:17.122Z,95475.00
2017-10-18T23:54:51.570Z,95481.14
2017-10-18T23:57:40.318Z,95474.19
